Time;durP1;ratioP1;P1;durP2;ratioP2;P2;SDS_P1;SDS_P2;PMS_P1;PMS_P2;Temp;Humidity;BMP_temperature;BMP_pressure;BME280_temperature;BME280_humidity;BME280_pressure;Samples;Min_cycle;Max_cycle;Signal;HPM_P1;HPM_P2
2023/02/02 00:00:54;;;;;;;25.60;3.80;;;13.60;50.90;;;;;;4993407;28;20477;-79
2023/02/02 00:03:22;;;;;;;11.50;3.10;;;13.60;51.20;;;;;;4997929;28;20445;-79
2023/02/02 00:05:52;;;;;;;14.70;3.47;;;13.70;51.00;;;;;;4992400;28;20457;-79
2023/02/02 00:08:21;;;;;;;19.13;3.90;;;13.70;51.00;;;;;;4998171;28;20457;-78
2023/02/02 00:10:49;;;;;;;26.60;3.50;;;13.70;50.80;;;;;;4990329;28;20473;-80
2023/02/02 00:13:17;;;;;;;27.50;4.40;;;13.70;50.90;;;;;;4992644;28;20468;-80
2023/02/02 00:15:45;;;;;;;17.10;4.10;;;13.60;50.60;;;;;;4994912;28;20466;-81
2023/02/02 00:18:13;;;;;;;24.37;4.60;;;13.50;50.20;;;;;;4995016;28;20461;-81
2023/02/02 00:20:41;;;;;;;26.33;4.40;;;13.50;51.00;;;;;;4996072;28;20473;-80
2023/02/02 00:23:11;;;;;;;16.43;3.50;;;13.50;51.00;;;;;;5001771;28;20472;-81
2023/02/02 00:25:39;;;;;;;19.03;3.50;;;13.50;50.50;;;;;;4997440;28;20448;-80
2023/02/02 00:28:06;;;;;;;20.33;4.17;;;13.50;50.90;;;;;;5000365;28;20456;-80
2023/02/02 00:30:34;;;;;;;25.13;3.60;;;13.40;50.60;;;;;;4997710;28;20485;-81
2023/02/02 00:33:02;;;;;;;19.67;4.00;;;13.40;50.60;;;;;;4996806;28;20454;-81
2023/02/02 00:35:30;;;;;;;18.20;3.73;;;13.40;50.60;;;;;;5002993;28;20473;-79
2023/02/02 00:37:58;;;;;;;22.70;4.23;;;13.40;50.60;;;;;;4999879;28;20433;-78
2023/02/02 00:40:27;;;;;;;26.37;4.60;;;13.50;51.10;;;;;;4995749;28;20496;-78
2023/02/02 00:42:55;;;;;;;22.03;4.47;;;13.50;50.80;;;;;;4997593;28;20449;-79
2023/02/02 00:45:24;;;;;;;20.70;4.23;;;13.50;51.20;;;;;;4995579;28;20453;-79
2023/02/02 00:47:52;;;;;;;24.03;4.07;;;13.60;50.90;;;;;;4997122;28;20453;-80
2023/02/02 00:50:20;;;;;;;23.57;4.33;;;13.60;50.90;;;;;;4991959;28;20484;-78
2023/02/02 00:52:49;;;;;;;24.73;4.73;;;13.70;51.00;;;;;;4995293;28;20461;-79
2023/02/02 00:55:17;;;;;;;26.03;4.70;;;13.70;50.90;;;;;;4994448;28;20545;-79
2023/02/02 00:57:47;;;;;;;21.07;4.27;;;13.70;51.60;;;;;;4989673;28;20477;-78
2023/02/02 01:00:16;;;;;;;15.27;4.00;;;13.90;51.80;;;;;;4990146;28;20453;-79
2023/02/02 01:02:44;;;;;;;20.63;4.03;;;13.90;51.70;;;;;;4998809;28;20468;-79
2023/02/02 01:05:13;;;;;;;37.00;4.37;;;14.00;51.20;;;;;;4996891;28;20452;-79
2023/02/02 01:07:41;;;;;;;26.27;9.70;;;14.00;52.20;;;;;;5000310;28;20460;-79
2023/02/02 01:10:11;;;;;;;34.57;13.30;;;14.00;51.60;;;;;;4996099;28;20474;-79
2023/02/02 01:12:39;;;;;;;35.20;11.70;;;14.00;52.10;;;;;;4995310;28;20483;-80
2023/02/02 01:15:10;;;;;;;30.90;9.70;;;14.00;51.80;;;;;;4994756;28;20479;-79
2023/02/02 01:17:38;;;;;;;33.87;11.80;;;13.90;51.80;;;;;;4996621;28;20479;-78
2023/02/02 01:20:07;;;;;;;27.97;8.47;;;13.90;51.90;;;;;;4993546;28;20469;-78
2023/02/02 01:22:37;;;;;;;22.57;6.97;;;13.80;51.60;;;;;;4996276;28;20464;-79
2023/02/02 01:25:05;;;;;;;26.47;6.70;;;13.90;52.00;;;;;;4997497;28;20437;-78
2023/02/02 01:27:33;;;;;;;23.77;6.23;;;13.80;51.80;;;;;;4998601;28;20465;-78
2023/02/02 01:30:00;;;;;;;24.93;4.83;;;13.80;51.60;;;;;;5001373;28;20445;-78
2023/02/02 01:32:29;;;;;;;25.97;5.33;;;13.70;51.70;;;;;;4994641;28;20456;-78
2023/02/02 01:34:57;;;;;;;24.30;5.03;;;13.60;52.00;;;;;;5002000;28;20456;-79
2023/02/02 01:37:25;;;;;;;24.50;4.70;;;13.50;51.70;;;;;;4998030;28;20499;-77
2023/02/02 01:39:53;;;;;;;20.93;3.60;;;13.60;52.20;;;;;;4994428;28;20445;-79
2023/02/02 01:42:22;;;;;;;20.30;4.40;;;13.50;51.80;;;;;;4998012;28;20481;-78
2023/02/02 01:45:21;;;;;;;25.87;4.57;;;13.50;52.20;;;;;;4993664;28;20472;-78
2023/02/02 01:47:53;;;;;;;21.90;4.40;;;13.50;52.30;;;;;;4998982;28;20453;-78
2023/02/02 01:50:22;;;;;;;11.83;3.40;;;13.50;52.40;;;;;;4992160;28;20489;-79
2023/02/02 01:52:51;;;;;;;25.73;4.07;;;13.40;52.20;;;;;;4996796;28;20812;-78
2023/02/02 01:55:21;;;;;;;26.13;4.37;;;13.50;52.60;;;;;;4990907;28;20456;-78
2023/02/02 01:57:52;;;;;;;26.53;4.73;;;13.30;52.50;;;;;;4993427;28;20464;-79
2023/02/02 02:00:24;;;;;;;19.43;4.20;;;13.30;52.90;;;;;;4997286;28;20496;-78
2023/02/02 02:02:56;;;;;;;30.63;4.43;;;13.20;53.00;;;;;;4995231;28;20449;-78
2023/02/02 02:05:27;;;;;;;22.07;3.87;;;13.20;53.00;;;;;;4995057;28;20449;-79
2023/02/02 02:08:02;;;;;;;29.53;3.97;;;13.20;53.20;;;;;;4994187;28;20445;-79
2023/02/02 02:10:30;;;;;;;24.40;3.50;;;13.10;53.10;;;;;;4989692;28;20484;-78
2023/02/02 02:12:58;;;;;;;18.53;3.80;;;13.10;53.30;;;;;;4991190;28;20445;-78
2023/02/02 02:18:33;;;;;;;17.70;3.63;;;13.10;53.10;;;;;;4989447;28;20445;-79
2023/02/02 02:27:56;;;;;;;22.93;2.87;;;13.20;53.50;;;;;;4993617;28;20461;-79
2023/02/02 02:30:39;;;;;;;26.77;3.83;;;13.20;53.50;;;;;;4999014;28;20504;-79
2023/02/02 02:33:09;;;;;;;18.33;3.40;;;13.20;53.60;;;;;;4997559;28;20517;-80
2023/02/02 02:35:40;;;;;;;24.10;4.23;;;13.20;53.90;;;;;;4999464;28;20461;-79
2023/02/02 02:38:10;;;;;;;21.67;3.53;;;13.20;53.50;;;;;;5001420;28;20449;-80
2023/02/02 02:40:41;;;;;;;22.97;3.80;;;13.20;53.80;;;;;;4997305;28;20471;-79
2023/02/02 02:43:10;;;;;;;27.33;4.00;;;13.10;53.80;;;;;;5003006;28;20449;-80
2023/02/02 02:45:39;;;;;;;23.57;4.03;;;13.10;53.60;;;;;;5002383;28;20455;-79
2023/02/02 02:48:09;;;;;;;20.53;3.60;;;13.10;53.70;;;;;;4995193;28;20450;-79
2023/02/02 02:50:37;;;;;;;22.20;4.27;;;13.10;53.80;;;;;;4999325;28;20544;-81
2023/02/02 02:53:06;;;;;;;12.60;2.80;;;13.10;53.90;;;;;;5003155;28;20459;-80
2023/02/02 02:55:40;;;;;;;22.20;3.93;;;13.10;54.00;;;;;;4997647;28;20469;-79
2023/02/02 02:58:09;;;;;;;22.77;3.50;;;13.10;53.80;;;;;;4999860;28;20450;-78
2023/02/02 03:00:48;;;;;;;17.97;3.83;;;13.10;54.10;;;;;;4993079;28;20542;-79
2023/02/02 03:03:22;;;;;;;21.97;4.17;;;13.10;54.10;;;;;;4999967;28;20449;-79
2023/02/02 03:05:54;;;;;;;19.33;4.13;;;13.10;54.10;;;;;;4993811;28;20464;-78
2023/02/02 03:08:24;;;;;;;32.70;4.50;;;13.00;54.20;;;;;;4995537;28;20449;-80
2023/02/02 03:10:52;;;;;;;20.97;3.93;;;13.00;54.00;;;;;;4993866;28;20482;-79
2023/02/02 03:13:20;;;;;;;25.90;4.27;;;13.00;54.20;;;;;;4998324;28;20465;-80
2023/02/02 03:15:48;;;;;;;32.10;4.20;;;12.90;54.10;;;;;;4997786;28;20541;-79
2023/02/02 03:18:19;;;;;;;24.33;4.30;;;12.90;54.50;;;;;;4999770;28;20528;-80
2023/02/02 03:20:47;;;;;;;25.13;3.83;;;13.00;54.30;;;;;;4998949;28;20484;-79
2023/02/02 03:23:15;;;;;;;21.93;4.20;;;13.00;54.50;;;;;;5000301;28;20447;-80
2023/02/02 03:25:43;;;;;;;24.73;3.60;;;13.00;54.30;;;;;;4997830;28;20473;-79
2023/02/02 03:28:11;;;;;;;23.23;3.40;;;13.00;54.50;;;;;;4995529;28;20446;-80
2023/02/02 03:30:39;;;;;;;24.07;3.90;;;13.00;54.50;;;;;;4995206;28;20492;-80
2023/02/02 03:33:08;;;;;;;17.70;3.30;;;13.00;54.20;;;;;;5000138;28;20454;-79
2023/02/02 03:35:37;;;;;;;20.67;4.57;;;13.00;54.50;;;;;;5000979;28;20464;-80
2023/02/02 03:38:05;;;;;;;17.70;3.73;;;13.00;54.30;;;;;;4999076;28;20472;-79
2023/02/02 03:40:32;;;;;;;24.17;4.47;;;12.90;54.10;;;;;;4998739;28;20483;-79
2023/02/02 03:43:01;;;;;;;18.33;3.67;;;12.90;54.50;;;;;;4994691;28;20552;-79
2023/02/02 03:45:30;;;;;;;17.47;3.37;;;12.80;54.40;;;;;;4997458;28;20469;-80
2023/02/02 03:47:59;;;;;;;29.47;4.93;;;12.80;54.60;;;;;;4995858;28;20457;-78
2023/02/02 03:50:26;;;;;;;17.53;3.80;;;12.90;54.20;;;;;;5008970;28;20484;-80
2023/02/02 03:52:56;;;;;;;22.60;4.23;;;12.80;54.40;;;;;;4999258;28;20458;-78
2023/02/02 03:55:24;;;;;;;29.70;4.37;;;12.80;54.30;;;;;;4998542;28;20518;-79
2023/02/02 03:57:52;;;;;;;24.13;3.93;;;12.70;54.50;;;;;;4999594;28;20477;-80
2023/02/02 04:00:21;;;;;;;33.83;4.20;;;12.70;54.30;;;;;;4996281;28;20458;-79
2023/02/02 04:02:48;;;;;;;24.00;4.60;;;12.70;54.90;;;;;;4998737;28;20464;-78
2023/02/02 04:05:16;;;;;;;21.63;4.20;;;12.80;54.80;;;;;;4998705;28;20543;-79
2023/02/02 04:07:44;;;;;;;22.80;3.90;;;12.80;54.40;;;;;;5001394;28;20454;-80
2023/02/02 04:10:13;;;;;;;19.93;5.33;;;12.80;54.20;;;;;;4995479;28;20461;-79
2023/02/02 04:12:41;;;;;;;23.07;3.87;;;12.80;54.10;;;;;;4996209;28;20477;-80
2023/02/02 04:15:10;;;;;;;21.40;4.23;;;12.90;54.30;;;;;;4997789;28;20464;-80
2023/02/02 04:17:37;;;;;;;21.27;3.60;;;12.80;54.20;;;;;;4993001;28;20477;-79
2023/02/02 04:20:06;;;;;;;25.30;4.17;;;12.90;54.50;;;;;;4998429;28;20453;-79
2023/02/02 04:22:34;;;;;;;15.57;3.30;;;12.80;54.10;;;;;;4996461;28;20460;-78
2023/02/02 04:25:02;;;;;;;20.63;3.87;;;12.90;54.00;;;;;;4990853;28;20449;-77
2023/02/02 04:27:32;;;;;;;22.27;4.23;;;12.90;54.20;;;;;;4989076;28;20478;-77
2023/02/02 04:30:00;;;;;;;33.03;4.07;;;12.90;53.90;;;;;;4993206;28;20445;-77
2023/02/02 04:32:28;;;;;;;26.83;3.90;;;12.90;53.90;;;;;;4995020;28;20446;-79
2023/02/02 04:34:57;;;;;;;22.53;4.87;;;12.90;53.80;;;;;;4994522;28;20453;-79
2023/02/02 04:37:25;;;;;;;21.80;4.00;;;12.80;53.90;;;;;;4994241;28;20482;-78
2023/02/02 04:39:54;;;;;;;22.73;4.17;;;12.80;53.80;;;;;;4998194;28;20448;-79
2023/02/02 04:42:21;;;;;;;21.87;3.77;;;12.80;54.10;;;;;;4993959;28;20500;-79
2023/02/02 04:44:50;;;;;;;27.30;4.10;;;12.80;54.00;;;;;;4996963;28;20461;-77
2023/02/02 04:47:18;;;;;;;28.00;4.13;;;12.80;53.90;;;;;;4993397;28;20445;-78
2023/02/02 04:49:46;;;;;;;21.27;3.63;;;12.80;53.90;;;;;;4998857;28;20459;-78
2023/02/02 04:52:14;;;;;;;26.97;4.40;;;12.70;53.80;;;;;;4997716;28;20488;-78
2023/02/02 04:54:42;;;;;;;21.23;4.37;;;12.70;54.50;;;;;;4995638;28;20461;-78
2023/02/02 04:57:10;;;;;;;30.27;4.30;;;12.70;54.10;;;;;;4995456;28;20871;-78
2023/02/02 04:59:38;;;;;;;20.10;3.77;;;12.70;54.10;;;;;;4998204;28;20451;-79
2023/02/02 05:02:10;;;;;;;24.03;4.50;;;12.70;54.10;;;;;;4997870;28;20473;-79
2023/02/02 05:04:38;;;;;;;31.60;4.40;;;12.60;54.20;;;;;;4994368;28;20445;-78
2023/02/02 05:07:06;;;;;;;29.80;5.20;;;12.60;54.20;;;;;;4996694;28;20455;-79
2023/02/02 05:09:34;;;;;;;18.90;3.40;;;12.50;54.40;;;;;;4993654;28;20453;-79
2023/02/02 05:12:01;;;;;;;26.30;4.50;;;12.60;54.60;;;;;;4988969;28;20489;-78
2023/02/02 05:14:30;;;;;;;20.23;3.40;;;12.50;54.30;;;;;;4993473;28;20445;-78
2023/02/02 05:16:57;;;;;;;30.47;5.40;;;12.50;54.70;;;;;;4998226;28;20445;-79
2023/02/02 05:19:27;;;;;;;24.37;4.40;;;12.50;54.40;;;;;;4991499;28;20438;-79
2023/02/02 05:21:54;;;;;;;22.93;3.93;;;12.50;54.60;;;;;;4997699;28;20503;-80
2023/02/02 05:24:22;;;;;;;20.60;3.80;;;12.50;54.60;;;;;;4990860;28;20486;-79
2023/02/02 05:26:51;;;;;;;18.97;3.73;;;12.40;54.80;;;;;;4997516;28;20477;-79
2023/02/02 05:29:20;;;;;;;24.10;4.50;;;12.40;55.00;;;;;;4996353;28;20442;-79
2023/02/02 05:31:47;;;;;;;22.70;4.17;;;12.50;55.20;;;;;;4997296;28;20477;-79
2023/02/02 05:34:16;;;;;;;20.30;4.57;;;12.50;54.90;;;;;;4994637;28;20453;-79
2023/02/02 05:36:45;;;;;;;14.90;3.83;;;12.40;54.90;;;;;;4995673;28;20449;-79
2023/02/02 05:39:13;;;;;;;26.67;4.43;;;12.50;54.90;;;;;;4983965;28;20469;-79
2023/02/02 05:41:42;;;;;;;31.33;4.50;;;12.40;55.20;;;;;;4997045;28;20485;-78
2023/02/02 05:44:10;;;;;;;20.13;3.80;;;12.50;55.00;;;;;;4995220;28;20449;-78
2023/02/02 05:46:38;;;;;;;29.83;5.47;;;12.40;55.00;;;;;;4999242;28;20462;-80
2023/02/02 05:49:06;;;;;;;26.73;3.97;;;12.40;55.50;;;;;;4999153;28;20449;-79
2023/02/02 05:51:35;;;;;;;24.03;4.43;;;12.40;55.30;;;;;;4999351;28;20473;-79
2023/02/02 05:54:04;;;;;;;28.67;4.07;;;12.40;55.40;;;;;;4999113;28;20453;-79
2023/02/02 05:56:32;;;;;;;28.67;5.50;;;12.40;55.60;;;;;;4997873;28;20465;-77
2023/02/02 05:58:59;;;;;;;19.20;4.10;;;12.40;55.80;;;;;;4998332;28;20508;-79
2023/02/02 06:01:28;;;;;;;26.37;4.50;;;12.30;56.10;;;;;;4994640;28;20461;-80
2023/02/02 06:03:56;;;;;;;28.17;4.40;;;12.30;56.00;;;;;;4998006;28;20452;-79
2023/02/02 06:06:24;;;;;;;33.10;4.40;;;12.30;55.90;;;;;;4995531;28;20481;-80
2023/02/02 06:08:52;;;;;;;20.87;4.03;;;12.40;56.10;;;;;;4998927;28;20453;-79
2023/02/02 06:11:21;;;;;;;22.03;4.00;;;12.40;56.10;;;;;;4992350;28;20503;-79
2023/02/02 06:13:49;;;;;;;25.57;4.57;;;12.30;56.10;;;;;;4997513;28;20453;-79
2023/02/02 06:16:17;;;;;;;33.63;4.53;;;12.30;56.30;;;;;;4996921;28;20457;-79
2023/02/02 06:18:45;;;;;;;24.77;5.37;;;12.40;56.40;;;;;;4994798;28;20564;-79
2023/02/02 06:21:14;;;;;;;27.00;4.30;;;12.30;56.50;;;;;;4996993;28;20478;-79
2023/02/02 06:23:44;;;;;;;31.13;4.40;;;12.30;56.40;;;;;;4994226;28;20454;-79
2023/02/02 06:26:12;;;;;;;27.73;5.63;;;12.40;56.70;;;;;;4994234;28;20469;-79
2023/02/02 06:28:42;;;;;;;22.83;4.30;;;12.40;56.70;;;;;;4997577;28;20833;-79
2023/02/02 06:31:11;;;;;;;31.23;5.23;;;12.40;56.90;;;;;;4995401;28;20481;-79
2023/02/02 06:33:39;;;;;;;25.00;4.03;;;12.30;56.80;;;;;;4989886;28;20515;-79
2023/02/02 06:36:07;;;;;;;32.40;4.73;;;12.30;57.20;;;;;;4995108;28;20445;-78
2023/02/02 06:38:35;;;;;;;23.17;4.23;;;12.40;57.20;;;;;;4989836;28;20478;-80
2023/02/02 06:41:03;;;;;;;27.83;4.30;;;12.40;57.20;;;;;;4995826;28;20658;-80
2023/02/02 06:43:31;;;;;;;26.73;3.83;;;12.40;57.10;;;;;;4997231;28;20460;-78
2023/02/02 06:46:00;;;;;;;23.80;5.53;;;12.30;57.40;;;;;;4996975;28;20488;-77
2023/02/02 06:48:28;;;;;;;32.00;4.80;;;12.40;57.30;;;;;;4993458;28;20460;-80
2023/02/02 06:50:58;;;;;;;23.70;5.40;;;12.40;57.20;;;;;;4996341;28;20485;-79
2023/02/02 06:53:25;;;;;;;30.40;6.23;;;12.40;57.20;;;;;;4995929;28;20456;-79
2023/02/02 06:55:54;;;;;;;27.13;5.33;;;12.40;57.60;;;;;;4997288;28;20473;-78
2023/02/02 06:58:22;;;;;;;24.57;4.93;;;12.30;57.50;;;;;;4991309;28;20556;-78
2023/02/02 07:00:50;;;;;;;28.00;5.63;;;12.30;57.60;;;;;;4995314;28;20484;-77
2023/02/02 07:03:20;;;;;;;22.63;5.33;;;12.30;57.70;;;;;;4994011;28;20456;-77
2023/02/02 07:05:48;;;;;;;23.53;4.80;;;12.40;57.90;;;;;;4993730;28;20470;-77
2023/02/02 07:08:16;;;;;;;27.97;4.40;;;12.40;57.60;;;;;;4994206;28;20950;-79
2023/02/02 07:10:44;;;;;;;28.83;5.20;;;12.40;57.80;;;;;;4995912;28;20469;-77
2023/02/02 07:13:32;;;;;;;30.17;4.83;;;12.40;58.10;;;;;;4996365;28;20441;-80
2023/02/02 07:16:00;;;;;;;22.10;4.50;;;12.40;58.00;;;;;;4995918;28;20453;-77
2023/02/02 07:18:29;;;;;;;27.07;5.10;;;12.40;58.00;;;;;;4994155;28;20560;-78
2023/02/02 07:20:59;;;;;;;28.27;5.70;;;12.40;58.00;;;;;;4994343;28;20477;-78
2023/02/02 07:23:27;;;;;;;24.37;4.20;;;12.40;58.00;;;;;;4993655;28;20460;-78
2023/02/02 07:26:02;;;;;;;27.10;4.90;;;12.40;58.30;;;;;;4995782;28;20477;-78
2023/02/02 07:28:30;;;;;;;19.23;4.03;;;12.40;57.90;;;;;;4994273;28;20444;-78
2023/02/02 07:30:58;;;;;;;19.27;4.70;;;12.40;58.20;;;;;;4987299;28;20492;-78
2023/02/02 07:33:26;;;;;;;20.40;4.27;;;12.40;58.20;;;;;;4994577;28;20485;-78
2023/02/02 07:35:55;;;;;;;21.03;3.80;;;12.40;58.60;;;;;;4994685;28;20449;-79
2023/02/02 07:38:24;;;;;;;27.00;4.63;;;12.50;58.30;;;;;;4992751;28;20465;-79
2023/02/02 07:40:52;;;;;;;17.93;3.67;;;12.50;58.10;;;;;;5000387;28;20473;-79
2023/02/02 07:43:20;;;;;;;30.23;4.30;;;12.40;58.30;;;;;;4993015;28;20449;-78
2023/02/02 07:45:48;;;;;;;21.97;4.23;;;12.50;58.00;;;;;;4993976;28;20464;-79
2023/02/02 07:48:16;;;;;;;29.03;4.20;;;12.50;58.30;;;;;;4989054;28;20464;-79
2023/02/02 07:50:44;;;;;;;14.70;3.93;;;12.50;58.20;;;;;;4989172;28;20484;-77
2023/02/02 07:53:14;;;;;;;19.33;4.20;;;12.60;58.10;;;;;;4993319;28;20460;-77
2023/02/02 07:55:42;;;;;;;17.07;3.90;;;12.60;58.40;;;;;;4993822;28;20479;-77
2023/02/02 07:58:10;;;;;;;23.17;4.37;;;12.60;58.00;;;;;;4993545;28;20460;-78
2023/02/02 08:00:38;;;;;;;19.83;3.53;;;12.60;58.10;;;;;;4993448;28;20485;-78
2023/02/02 08:03:06;;;;;;;22.67;4.60;;;12.60;58.00;;;;;;4989390;28;20484;-78
2023/02/02 08:05:34;;;;;;;18.07;3.57;;;12.70;58.00;;;;;;4987008;28;20490;-78
2023/02/02 08:08:02;;;;;;;19.60;3.47;;;12.60;58.10;;;;;;4991927;28;20461;-77
2023/02/02 08:10:32;;;;;;;21.80;3.17;;;12.60;58.10;;;;;;4992196;28;20515;-76
2023/02/02 08:12:59;;;;;;;15.70;3.70;;;12.70;58.10;;;;;;4993777;28;20457;-78
2023/02/02 08:15:27;;;;;;;14.17;3.07;;;12.80;58.20;;;;;;4993890;28;20449;-80
2023/02/02 08:17:58;;;;;;;13.90;3.40;;;12.80;57.70;;;;;;4996305;28;20449;-80
2023/02/02 08:20:26;;;;;;;21.77;2.97;;;12.80;57.80;;;;;;4994144;28;20477;-78
2023/02/02 08:22:54;;;;;;;10.70;3.57;;;12.90;58.10;;;;;;4992684;28;20450;-78
2023/02/02 08:25:22;;;;;;;16.63;3.03;;;12.90;57.60;;;;;;4992160;28;20488;-79
2023/02/02 08:27:54;;;;;;;14.47;2.63;;;12.90;57.70;;;;;;4996142;28;20457;-78
2023/02/02 08:30:22;;;;;;;16.73;3.53;;;12.90;57.50;;;;;;4987305;28;20449;-79
2023/02/02 08:32:50;;;;;;;17.90;2.90;;;13.00;57.70;;;;;;4992420;28;20461;-78
2023/02/02 08:35:18;;;;;;;11.17;2.87;;;13.00;57.30;;;;;;4991848;28;20480;-78
2023/02/02 08:37:47;;;;;;;10.90;2.27;;;13.00;57.30;;;;;;4993336;28;20480;-78
2023/02/02 08:40:15;;;;;;;11.33;2.60;;;13.00;57.50;;;;;;4989875;28;20688;-78
2023/02/02 08:42:45;;;;;;;14.23;2.70;;;13.10;56.90;;;;;;4988626;28;20499;-79
2023/02/02 08:45:14;;;;;;;11.80;2.80;;;13.20;57.40;;;;;;4993800;28;20458;-79
2023/02/02 08:48:02;;;;;;;11.20;2.43;;;13.30;56.90;;;;;;4989701;28;20517;-80
2023/02/02 08:50:38;;;;;;;8.13;2.30;;;13.30;56.80;;;;;;4987915;28;20476;-80
2023/02/02 08:53:06;;;;;;;13.87;2.27;;;13.30;56.70;;;;;;4993691;28;20465;-78
2023/02/02 08:55:34;;;;;;;7.80;2.10;;;12.50;58.70;;;;;;4989615;28;20453;-77
2023/02/02 08:58:01;;;;;;;10.23;2.03;;;11.80;63.00;;;;;;4994807;28;20452;-77
2023/02/02 09:00:31;;;;;;;7.43;2.20;;;11.20;62.00;;;;;;4992353;28;20993;-78
2023/02/02 09:02:58;;;;;;;9.07;2.57;;;10.80;64.90;;;;;;4986221;28;20450;-77
2023/02/02 09:05:27;;;;;;;9.73;2.37;;;10.90;66.10;;;;;;4986730;28;20442;-77
2023/02/02 09:07:55;;;;;;;12.63;2.93;;;11.50;70.70;;;;;;4990493;28;20449;-78
2023/02/02 09:10:23;;;;;;;6.63;1.80;;;12.40;68.20;;;;;;4989943;28;20461;-77
2023/02/02 09:12:51;;;;;;;13.40;2.70;;;13.10;65.10;;;;;;4988652;28;20453;-76
2023/02/02 09:15:19;;;;;;;8.00;1.93;;;13.70;63.60;;;;;;4989283;28;20441;-77
2023/02/02 09:17:48;;;;;;;10.33;2.40;;;14.10;61.10;;;;;;4988624;28;20942;-76
2023/02/02 09:20:16;;;;;;;9.10;2.00;;;14.40;59.90;;;;;;4986371;28;20473;-78
2023/02/02 09:22:47;;;;;;;9.17;2.30;;;14.60;59.00;;;;;;4991435;28;20545;-77
2023/02/02 09:25:15;;;;;;;6.50;1.70;;;14.80;58.20;;;;;;4992039;28;20446;-77
2023/02/02 09:27:42;;;;;;;9.33;2.10;;;15.00;57.80;;;;;;4990740;28;20461;-76
2023/02/02 09:30:11;;;;;;;10.33;2.30;;;15.10;57.40;;;;;;4989026;28;20456;-76
2023/02/02 09:32:39;;;;;;;8.10;2.10;;;15.20;57.00;;;;;;4991731;28;20468;-76
2023/02/02 09:35:09;;;;;;;8.20;1.80;;;15.30;56.70;;;;;;4984661;28;20442;-78
2023/02/02 09:37:37;;;;;;;7.27;2.00;;;15.40;56.50;;;;;;4989535;28;20456;-76
2023/02/02 09:40:05;;;;;;;8.17;2.40;;;15.50;56.30;;;;;;4992467;28;20480;-77
2023/02/02 09:42:51;;;;;;;8.30;2.20;;;15.60;56.20;;;;;;4987457;28;20461;-78
2023/02/02 09:45:22;;;;;;;13.43;2.40;;;15.60;56.10;;;;;;4986862;28;21063;-78
2023/02/02 09:47:55;;;;;;;6.67;2.23;;;15.70;56.00;;;;;;4991690;28;20444;-78
2023/02/02 09:50:39;;;;;;;4.63;1.80;;;15.80;55.80;;;;;;4987557;28;20464;-76
2023/02/02 09:53:10;;;;;;;5.97;2.10;;;15.80;55.70;;;;;;4986034;28;20441;-77
2023/02/02 09:55:39;;;;;;;5.67;1.90;;;15.90;55.70;;;;;;4988553;28;20496;-78
2023/02/02 09:58:11;;;;;;;7.30;2.20;;;15.90;55.70;;;;;;4990608;28;20457;-78
2023/02/02 10:00:42;;;;;;;8.47;2.33;;;15.90;55.60;;;;;;4990350;28;20477;-77
2023/02/02 10:03:14;;;;;;;8.97;2.13;;;16.00;55.50;;;;;;4990578;28;20446;-78
2023/02/02 10:05:46;;;;;;;10.23;2.30;;;16.00;55.60;;;;;;4991126;28;20439;-78
2023/02/02 10:08:18;;;;;;;5.03;2.27;;;16.00;55.40;;;;;;4989928;28;20442;-78
2023/02/02 10:11:01;;;;;;;3.20;1.87;;;16.10;55.40;;;;;;4991661;28;20962;-78
2023/02/02 10:13:32;;;;;;;5.30;2.17;;;16.10;55.40;;;;;;4988836;28;20426;-79
2023/02/02 10:16:04;;;;;;;8.03;2.20;;;16.20;55.50;;;;;;4990264;28;20446;-79
2023/02/02 10:18:37;;;;;;;4.43;1.70;;;16.40;55.70;;;;;;4993810;28;20452;-77
2023/02/02 10:21:07;;;;;;;5.57;1.90;;;16.50;55.70;;;;;;4988053;28;20998;-78
2023/02/02 10:23:36;;;;;;;5.80;1.80;;;16.60;55.50;;;;;;4987304;28;20457;-78
2023/02/02 10:26:05;;;;;;;10.43;2.37;;;16.80;55.70;;;;;;4987393;28;20476;-78
2023/02/02 10:28:41;;;;;;;4.37;1.83;;;17.00;55.90;;;;;;4982020;28;20457;-76
2023/02/02 10:31:18;;;;;;;7.13;2.60;;;17.30;55.80;;;;;;4991097;28;20465;-77
2023/02/02 10:33:54;;;;;;;6.70;1.87;;;17.50;55.40;;;;;;4989734;28;20584;-76
2023/02/02 10:36:26;;;;;;;3.83;1.90;;;17.70;55.30;;;;;;4994379;28;20540;-79
2023/02/02 10:38:57;;;;;;;5.53;1.97;;;17.70;55.10;;;;;;4989769;28;20449;-77
2023/02/02 10:41:27;;;;;;;6.90;2.27;;;17.80;55.00;;;;;;4995030;28;20484;-78
2023/02/02 10:44:06;;;;;;;5.70;2.13;;;17.80;54.90;;;;;;4995080;28;20449;-77
2023/02/02 10:46:37;;;;;;;6.87;2.27;;;17.80;54.90;;;;;;4994342;28;20447;-79
2023/02/02 10:49:29;;;;;;;3.47;1.83;;;17.80;54.80;;;;;;4995011;28;20472;-79
2023/02/02 10:52:01;;;;;;;7.40;2.10;;;17.80;54.90;;;;;;4968152;28;21036;-78
2023/02/02 10:54:38;;;;;;;2.73;1.73;;;17.70;55.00;;;;;;4987844;28;20437;-78
2023/02/02 10:57:28;;;;;;;3.67;1.53;;;17.70;54.90;;;;;;4993837;28;20461;-78
2023/02/02 11:00:00;;;;;;;2.60;1.80;;;17.60;55.20;;;;;;4993983;28;20434;-77
2023/02/02 11:02:28;;;;;;;3.53;1.53;;;17.60;55.20;;;;;;4994128;28;20460;-77
2023/02/02 11:07:43;;;;;;;5.90;2.03;;;17.50;55.40;;;;;;4979445;28;20825;-79
2023/02/02 11:10:15;;;;;;;5.00;1.60;;;17.50;55.40;;;;;;4994959;28;20445;-78
2023/02/02 11:12:48;;;;;;;4.00;1.93;;;17.50;55.60;;;;;;4988586;28;20461;-77
2023/02/02 11:15:24;;;;;;;9.63;2.40;;;17.50;55.60;;;;;;4993414;28;20453;-78
2023/02/02 11:17:53;;;;;;;2.90;1.90;;;17.50;55.60;;;;;;4994982;28;20445;-78
2023/02/02 11:20:27;;;;;;;12.33;2.23;;;17.50;55.90;;;;;;4994452;28;20460;-78
2023/02/02 11:23:04;;;;;;;7.27;2.17;;;17.50;55.70;;;;;;4989427;28;20440;-76
2023/02/02 11:25:33;;;;;;;8.10;2.20;;;17.50;55.90;;;;;;4993403;28;20449;-78
2023/02/02 11:28:10;;;;;;;4.97;1.83;;;17.50;55.80;;;;;;4979225;28;20518;-78
2023/02/02 11:30:38;;;;;;;9.20;1.93;;;17.50;55.80;;;;;;4994205;28;20467;-78
2023/02/02 11:33:21;;;;;;;3.10;1.57;;;17.50;56.10;;;;;;4990413;28;20477;-78
2023/02/02 11:35:53;;;;;;;4.10;1.73;;;17.60;56.20;;;;;;4983890;28;20553;-77
2023/02/02 11:38:22;;;;;;;4.53;2.27;;;17.60;56.00;;;;;;4993362;28;20453;-77
2023/02/02 11:40:56;;;;;;;2.57;1.50;;;17.60;55.80;;;;;;4993781;28;20478;-77
2023/02/02 11:43:27;;;;;;;3.60;1.60;;;17.70;55.90;;;;;;4993446;28;20549;-78
2023/02/02 11:45:58;;;;;;;7.17;2.13;;;17.80;55.90;;;;;;4993130;28;20456;-78
2023/02/02 11:48:32;;;;;;;3.37;1.60;;;17.80;55.90;;;;;;4995179;28;20445;-79
2023/02/02 11:51:00;;;;;;;3.37;1.73;;;17.90;55.80;;;;;;4987858;28;20561;-77
2023/02/02 11:53:31;;;;;;;3.80;1.87;;;18.00;55.80;;;;;;4993920;28;20537;-79
2023/02/02 11:56:01;;;;;;;4.43;1.93;;;18.10;55.80;;;;;;4991703;28;20560;-79
2023/02/02 11:58:29;;;;;;;3.30;2.00;;;18.10;55.60;;;;;;4991534;28;20508;-79
2023/02/02 12:01:02;;;;;;;6.40;1.90;;;18.10;55.50;;;;;;4994447;28;20477;-79
2023/02/02 12:03:34;;;;;;;5.80;1.83;;;18.20;55.50;;;;;;4992836;28;20441;-77
2023/02/02 12:06:27;;;;;;;5.93;2.00;;;18.20;55.80;;;;;;4995166;28;20462;-77
2023/02/02 12:08:58;;;;;;;3.43;2.10;;;18.20;55.50;;;;;;4988514;28;20420;-79
2023/02/02 12:11:34;;;;;;;9.13;2.50;;;18.20;55.70;;;;;;4990982;28;20453;-79
2023/02/02 12:14:10;;;;;;;5.53;2.33;;;18.30;55.60;;;;;;4988536;28;20456;-79
2023/02/02 12:16:52;;;;;;;2.70;1.70;;;18.30;55.60;;;;;;4980371;28;20453;-76
2023/02/02 12:19:37;;;;;;;4.27;2.53;;;18.30;55.60;;;;;;4984528;28;20453;-76
2023/02/02 12:22:10;;;;;;;5.23;2.30;;;18.40;55.70;;;;;;4992838;28;20485;-76
2023/02/02 12:24:42;;;;;;;7.17;2.97;;;18.40;55.60;;;;;;4984056;28;20475;-79
2023/02/02 12:27:17;;;;;;;4.87;2.37;;;18.40;55.50;;;;;;4992589;28;20523;-77
2023/02/02 12:29:52;;;;;;;3.20;1.70;;;18.40;55.40;;;;;;4977144;28;20447;-79
2023/02/02 12:32:28;;;;;;;3.43;2.33;;;18.40;55.50;;;;;;4986389;28;20491;-77
2023/02/02 12:35:06;;;;;;;7.40;2.23;;;18.40;55.60;;;;;;4983818;28;20441;-78
2023/02/02 12:37:41;;;;;;;5.77;2.40;;;18.40;55.70;;;;;;4976373;28;20461;-77
2023/02/02 12:40:21;;;;;;;4.67;2.70;;;18.40;55.80;;;;;;4983381;28;20460;-77
2023/02/02 12:42:54;;;;;;;4.30;1.83;;;18.40;55.60;;;;;;4979438;28;20448;-77
2023/02/02 12:45:42;;;;;;;3.70;2.17;;;18.50;55.80;;;;;;4986157;28;20438;-77
2023/02/02 12:48:31;;;;;;;3.70;2.30;;;18.60;56.50;;;;;;4986666;28;20548;-75
2023/02/02 12:51:06;;;;;;;3.50;2.00;;;18.90;56.40;;;;;;4978540;28;20473;-77
2023/02/02 12:53:42;;;;;;;6.73;2.20;;;19.40;56.00;;;;;;4977855;28;20455;-77
2023/02/02 12:56:17;;;;;;;5.70;2.23;;;19.80;55.20;;;;;;4987585;28;20464;-77
2023/02/02 12:58:49;;;;;;;6.47;1.93;;;19.90;54.40;;;;;;4996254;28;20435;-77
2023/02/02 13:01:22;;;;;;;5.30;1.80;;;20.10;54.30;;;;;;4994268;28;20496;-77
2023/02/02 13:04:17;;;;;;;6.50;2.50;;;20.20;53.80;;;;;;4988167;28;20463;-77
2023/02/02 13:06:57;;;;;;;5.63;1.80;;;20.20;53.70;;;;;;4985323;28;20459;-78
2023/02/02 13:09:28;;;;;;;2.40;1.80;;;20.20;53.70;;;;;;4993964;28;20445;-78